Time;durP1;ratioP1;P1;durP2;ratioP2;P2;SDS_P1;SDS_P2;PMS_P1;PMS_P2;Temp;Humidity;BMP_temperature;BMP_pressure;BME280_temperature;BME280_humidity;BME280_pressure;Samples;Min_cycle;Max_cycle;Signal;HPM_P1;HPM_P2
2023/08/24 00:01:01;;;;;;;5.45;3.33;;;;;;;19.49;73.29;101138.72;5091304;28;20040;-52
2023/08/24 00:04:17;;;;;;;6.90;3.20;;;;;;;19.47;73.42;101136.19;5091017;28;20081;-51
2023/08/24 00:06:44;;;;;;;6.47;3.28;;;;;;;19.44;73.53;101140.97;5086431;28;20144;-58
2023/08/24 00:09:12;;;;;;;5.65;3.22;;;;;;;19.41;73.57;101131.41;5091880;28;20107;-56
2023/08/24 00:11:39;;;;;;;5.63;3.28;;;;;;;19.40;73.84;101131.53;5088694;28;20906;-54
2023/08/24 00:14:06;;;;;;;8.02;3.47;;;;;;;19.38;74.29;101130.84;5090286;28;20075;-56
2023/08/24 00:16:34;;;;;;;9.52;3.50;;;;;;;19.36;74.47;101136.31;5091259;28;20120;-57
2023/08/24 00:19:01;;;;;;;6.28;3.72;;;;;;;19.36;74.71;101135.44;5094696;28;20098;-56
2023/08/24 00:21:28;;;;;;;5.10;3.30;;;;;;;19.32;74.65;101132.22;5096183;28;20411;-58
2023/08/24 00:23:55;;;;;;;6.78;3.25;;;;;;;19.31;75.01;101129.66;5093540;28;20044;-55
2023/08/24 00:26:23;;;;;;;8.93;3.45;;;;;;;19.29;75.30;101134.31;5084299;28;20132;-55
2023/08/24 00:28:51;;;;;;;7.72;4.07;;;;;;;19.26;75.49;101123.91;5087202;28;20132;-51
2023/08/24 00:31:18;;;;;;;4.68;3.10;;;;;;;19.25;75.67;101125.72;5088741;28;20043;-52
2023/08/24 00:33:45;;;;;;;5.47;3.63;;;;;;;19.23;75.73;101125.03;5091503;28;20053;-58
2023/08/24 00:36:12;;;;;;;7.13;3.10;;;;;;;19.21;76.56;101125.13;5086948;28;20056;-51
2023/08/24 00:38:40;;;;;;;6.18;3.22;;;;;;;19.19;76.49;101121.78;5083566;28;20099;-56
2023/08/24 00:41:07;;;;;;;7.28;3.35;;;;;;;19.18;76.59;101125.44;5092379;28;20110;-56
2023/08/24 00:43:35;;;;;;;6.40;3.53;;;;;;;19.16;76.56;101130.03;5086965;28;20052;-53
2023/08/24 00:46:03;;;;;;;5.43;3.40;;;;;;;19.16;76.37;101126.53;5084599;28;20456;-55
2023/08/24 00:48:31;;;;;;;6.97;3.75;;;;;;;19.14;76.77;101132.00;5069960;28;20652;-56
2023/08/24 00:51:02;;;;;;;5.28;3.10;;;;;;;19.12;76.98;101123.28;5071537;28;20143;-55
2023/08/24 00:53:31;;;;;;;10.98;3.35;;;;;;;19.11;77.10;101124.25;5087917;28;20198;-52
2023/08/24 00:55:58;;;;;;;3.95;3.15;;;;;;;19.12;76.79;101122.44;5078220;28;20144;-52
2023/08/24 00:58:27;;;;;;;8.35;3.65;;;;;;;19.12;76.73;101120.59;5062692;28;20059;-53
2023/08/24 01:00:55;;;;;;;7.50;3.30;;;;;;;19.11;76.95;101121.59;5081485;28;20051;-54
2023/08/24 01:03:24;;;;;;;5.57;3.53;;;;;;;19.10;77.05;101116.41;5093122;28;20048;-51
2023/08/24 01:05:52;;;;;;;6.13;3.15;;;;;;;19.08;77.18;101113.84;5077550;28;20068;-54
2023/08/24 01:08:20;;;;;;;7.38;3.83;;;;;;;19.07;77.18;101109.50;5081981;28;20068;-56
2023/08/24 01:11:09;;;;;;;8.93;3.72;;;;;;;19.07;77.73;101112.16;5079714;28;20053;-53
2023/08/24 01:13:57;;;;;;;6.38;3.30;;;;;;;19.07;77.65;101112.16;5065322;28;20369;-53
2023/08/24 01:16:28;;;;;;;9.75;3.70;;;;;;;19.08;77.75;101113.00;5079022;28;20135;-52
2023/08/24 01:18:57;;;;;;;4.70;3.55;;;;;;;19.08;77.85;101110.31;5062218;28;20164;-50
2023/08/24 01:21:25;;;;;;;5.80;3.17;;;;;;;19.10;77.74;101106.56;5050538;28;20257;-52
2023/08/24 01:24:10;;;;;;;5.72;3.53;;;;;;;19.10;78.24;101109.22;5079408;28;20061;-51
2023/08/24 01:26:38;;;;;;;7.78;3.65;;;;;;;19.10;78.72;101111.91;5058420;28;20115;-55
2023/08/24 01:29:05;;;;;;;4.45;3.03;;;;;;;19.11;78.43;101110.91;5084118;28;20121;-54
2023/08/24 01:31:32;;;;;;;5.72;3.30;;;;;;;19.12;78.67;101107.25;5079813;28;20118;-53
2023/08/24 01:34:01;;;;;;;4.53;3.47;;;;;;;19.14;79.11;101113.31;5061870;28;20072;-56
2023/08/24 01:36:28;;;;;;;8.20;3.85;;;;;;;19.16;79.19;101116.69;5082666;28;20059;-51
2023/08/24 01:39:09;;;;;;;6.43;3.70;;;;;;;19.17;79.13;101117.53;5065183;28;20534;-55
2023/08/24 01:41:42;;;;;;;8.00;3.35;;;;;;;19.19;79.09;101110.25;5066180;28;20263;-53
2023/08/24 01:44:13;;;;;;;6.93;3.63;;;;;;;19.19;79.35;101111.09;5081797;28;20090;-55
2023/08/24 01:46:42;;;;;;;6.38;4.05;;;;;;;19.16;78.34;101111.34;5036720;28;20390;-53
2023/08/24 01:49:12;;;;;;;7.32;4.18;;;;;;;19.20;79.15;101109.28;5073206;28;20190;-53
2023/08/24 01:51:40;;;;;;;6.65;4.20;;;;;;;19.25;79.29;101114.19;5059784;28;20147;-51
2023/08/24 01:54:08;;;;;;;7.47;3.90;;;;;;;19.30;79.82;101114.63;5059372;28;20055;-52
2023/08/24 01:56:35;;;;;;;10.70;4.40;;;;;;;19.32;80.23;101118.88;5059784;28;20174;-54
2023/08/24 01:59:03;;;;;;;7.13;4.40;;;;;;;19.34;80.84;101110.72;5079752;28;20139;-54
2023/08/24 02:01:30;;;;;;;6.57;4.35;;;;;;;19.36;81.42;101106.06;5076172;28;20071;-54
2023/08/24 02:03:59;;;;;;;10.48;5.55;;;;;;;19.36;81.60;101106.94;5079849;28;20083;-54
2023/08/24 02:07:00;;;;;;;6.22;4.32;;;;;;;19.33;82.72;101096.53;5075708;28;20506;-52
2023/08/24 02:09:28;;;;;;;7.65;4.75;;;;;;;19.30;82.56;101101.28;5074507;28;20064;-53
2023/08/24 02:11:55;;;;;;;5.85;4.40;;;;;;;19.30;82.57;101103.97;5079771;28;20162;-53
2023/08/24 02:14:22;;;;;;;6.07;4.28;;;;;;;19.29;82.48;101105.78;5082535;28;20075;-52
2023/08/24 02:16:49;;;;;;;6.78;4.95;;;;;;;19.30;82.62;101101.28;5080332;28;20425;-53
2023/08/24 02:19:16;;;;;;;6.70;4.60;;;;;;;19.32;82.81;101104.66;5084233;28;20816;-54
2023/08/24 02:21:44;;;;;;;10.35;5.68;;;;;;;19.33;82.93;101101.03;5084749;28;20044;-54
2023/08/24 02:24:11;;;;;;;10.52;5.22;;;;;;;19.36;83.22;101109.63;5080381;28;20072;-56
2023/08/24 02:26:38;;;;;;;8.02;5.70;;;;;;;19.36;83.06;101104.28;5081939;28;20464;-54
2023/08/24 02:29:06;;;;;;;6.57;5.22;;;;;;;19.37;83.26;101105.13;5080727;28;20139;-50
2023/08/24 02:31:33;;;;;;;8.05;5.13;;;;;;;19.38;83.71;101104.97;5083621;28;20151;-54
2023/08/24 02:34:00;;;;;;;8.95;4.82;;;;;;;19.39;83.78;101105.81;5079598;28;20187;-49
2023/08/24 02:36:28;;;;;;;8.40;5.15;;;;;;;19.39;83.51;101108.47;5078641;28;20954;-52
2023/08/24 02:38:56;;;;;;;9.07;5.57;;;;;;;19.40;83.60;101104.81;5090269;28;20082;-52
2023/08/24 02:41:23;;;;;;;10.98;6.00;;;;;;;19.39;83.41;101101.31;5090773;28;20048;-52
2023/08/24 02:43:50;;;;;;;10.18;5.57;;;;;;;19.40;82.84;101099.50;5084707;28;20098;-57
2023/08/24 02:46:18;;;;;;;10.63;5.57;;;;;;;19.41;82.36;101102.03;5087221;28;20058;-55
2023/08/24 02:48:45;;;;;;;13.35;5.47;;;;;;;19.41;82.42;101101.22;5095442;28;20095;-56
2023/08/24 02:51:13;;;;;;;11.88;5.53;;;;;;;19.42;82.23;101090.38;5090759;28;20075;-55
2023/08/24 02:53:40;;;;;;;7.70;4.90;;;;;;;19.43;82.14;101089.38;5094479;28;20044;-53
2023/08/24 02:56:07;;;;;;;13.18;5.75;;;;;;;19.44;81.90;101087.56;5093096;28;20491;-54
2023/08/24 02:58:34;;;;;;;11.32;5.30;;;;;;;19.45;82.81;101094.59;5093679;28;20054;-53
2023/08/24 03:01:08;;;;;;;8.35;4.65;;;;;;;19.49;82.84;101096.00;5086739;28;20123;-54
2023/08/24 03:03:36;;;;;;;6.78;4.53;;;;;;;19.51;82.24;101093.22;5090570;28;20119;-56
2023/08/24 03:06:06;;;;;;;6.75;4.35;;;;;;;19.53;81.11;101088.56;5089214;28;20190;-56
2023/08/24 03:08:34;;;;;;;7.50;5.10;;;;;;;19.54;80.83;101082.25;5084074;28;20044;-55
2023/08/24 03:11:02;;;;;;;5.78;4.38;;;;;;;19.57;79.87;101088.16;5064013;28;20144;-51
2023/08/24 03:13:30;;;;;;;6.80;4.75;;;;;;;19.57;79.57;101092.66;5075672;28;20189;-57
2023/08/24 03:16:03;;;;;;;11.23;4.68;;;;;;;19.57;79.39;101093.50;5092105;28;20048;-55
2023/08/24 03:18:31;;;;;;;6.43;4.28;;;;;;;19.57;78.86;101093.50;5087314;28;20397;-54
2023/08/24 03:20:58;;;;;;;6.20;3.85;;;;;;;19.57;79.13;101096.16;5077066;28;20052;-55
2023/08/24 03:23:25;;;;;;;4.88;4.03;;;;;;;19.58;79.12;101091.66;5087320;28;20106;-51
2023/08/24 03:25:53;;;;;;;7.40;4.47;;;;;;;19.57;78.83;101090.81;5082742;28;20052;-58
2023/08/24 03:28:20;;;;;;;5.03;3.97;;;;;;;19.61;78.80;101099.44;5092785;28;20048;-53
2023/08/24 03:30:50;;;;;;;6.45;4.05;;;;;;;19.63;78.94;101098.34;5088033;28;20052;-52
2023/08/24 03:33:19;;;;;;;5.30;3.90;;;;;;;19.64;78.64;101094.69;5093532;28;20130;-53
2023/08/24 03:35:46;;;;;;;6.05;4.00;;;;;;;19.67;78.18;101102.41;5095164;28;20063;-53
2023/08/24 03:38:13;;;;;;;5.75;3.78;;;;;;;19.71;77.49;101101.16;5087790;28;20093;-50
2023/08/24 03:40:41;;;;;;;7.13;3.70;;;;;;;19.70;77.11;101088.78;5088733;28;20051;-57
2023/08/24 03:43:08;;;;;;;5.43;4.07;;;;;;;19.71;76.65;101081.59;5084927;28;20094;-55
2023/08/24 03:45:35;;;;;;;6.45;3.50;;;;;;;19.70;76.37;101083.44;5084886;28;20044;-53
2023/08/24 03:48:03;;;;;;;7.85;4.15;;;;;;;19.70;75.57;101078.09;5091285;28;20172;-55
2023/08/24 03:50:30;;;;;;;4.90;3.58;;;;;;;19.70;75.29;101080.75;5091791;28;20048;-56
2023/08/24 03:52:58;;;;;;;6.75;3.22;;;;;;;19.70;75.01;101077.25;5089980;28;20102;-52
2023/08/24 03:55:25;;;;;;;5.80;3.90;;;;;;;19.71;74.82;101085.13;5088658;28;20572;-57
2023/08/24 03:57:54;;;;;;;6.60;3.50;;;;;;;19.69;74.09;101079.09;5085863;28;20059;-53
2023/08/24 04:00:21;;;;;;;5.28;3.35;;;;;;;19.68;74.00;101074.72;5091367;28;20087;-54
2023/08/24 04:02:49;;;;;;;5.03;3.17;;;;;;;19.65;73.47;101080.34;5082491;28;20086;-53
2023/08/24 04:05:16;;;;;;;5.38;3.40;;;;;;;19.64;73.39;101073.31;5089972;28;20127;-53
2023/08/24 04:07:43;;;;;;;4.88;3.50;;;;;;;19.65;73.17;101072.31;5075770;28;20291;-59
2023/08/24 04:10:11;;;;;;;4.78;3.10;;;;;;;19.68;73.22;101076.56;5092422;28;20416;-55
2023/08/24 04:12:38;;;;;;;4.22;2.90;;;;;;;19.62;73.10;101075.25;5093464;28;20111;-55
2023/08/24 04:15:05;;;;;;;4.57;3.53;;;;;;;19.64;73.19;101072.47;5086597;28;20040;-54
2023/08/24 04:17:33;;;;;;;4.82;3.17;;;;;;;19.63;72.90;101071.63;5090415;28;20112;-53
2023/08/24 04:20:00;;;;;;;5.82;2.97;;;;;;;19.68;72.68;101073.88;5088970;28;20086;-58
2023/08/24 04:22:27;;;;;;;4.82;3.00;;;;;;;19.69;72.45;101076.41;5088773;28;20088;-54
2023/08/24 04:24:54;;;;;;;5.90;3.17;;;;;;;19.70;72.24;101082.59;5090493;28;20058;-54
2023/08/24 04:27:21;;;;;;;7.40;3.53;;;;;;;19.69;72.14;101076.41;5091517;28;20107;-54
2023/08/24 04:29:49;;;;;;;4.78;2.97;;;;;;;19.73;71.89;101077.81;5089609;28;21381;-53
2023/08/24 04:32:16;;;;;;;4.85;3.22;;;;;;;19.75;71.52;101076.84;5082974;28;20052;-49
2023/08/24 04:34:44;;;;;;;4.40;2.60;;;;;;;19.72;71.24;101077.94;5093767;28;20170;-52
2023/08/24 04:37:11;;;;;;;5.32;3.10;;;;;;;19.74;71.40;101070.66;5084595;28;20509;-57
2023/08/24 04:39:38;;;;;;;7.53;2.97;;;;;;;19.76;71.11;101075.84;5090060;28;20060;-52
2023/08/24 04:42:06;;;;;;;5.47;2.80;;;;;;;19.75;70.75;101079.50;5087317;28;20098;-56
2023/08/24 04:44:33;;;;;;;7.80;3.28;;;;;;;19.73;70.67;101075.16;5086583;28;20134;-53
2023/08/24 04:47:02;;;;;;;8.00;2.78;;;;;;;19.75;70.64;101082.19;5085538;28;21015;-53
2023/08/24 04:49:32;;;;;;;5.20;2.53;;;;;;;19.80;70.86;101079.94;5092175;28;20056;-52
2023/08/24 04:51:59;;;;;;;7.50;3.13;;;;;;;19.83;70.42;101085.00;5069043;28;20076;-56
2023/08/24 04:54:26;;;;;;;5.75;3.03;;;;;;;19.86;70.26;101082.06;5079536;28;20183;-50
2023/08/24 04:56:53;;;;;;;3.63;2.60;;;;;;;19.87;69.31;101086.41;5084935;28;20052;-57
2023/08/24 04:59:21;;;;;;;4.07;2.75;;;;;;;19.85;69.50;101081.19;5088637;28;20680;-56
2023/08/24 05:01:48;;;;;;;6.40;2.90;;;;;;;19.88;69.52;101088.09;5078333;28;20159;-52
2023/08/24 05:04:15;;;;;;;5.50;2.42;;;;;;;19.90;69.46;101088.78;5080619;28;20110;-51
2023/08/24 05:06:42;;;;;;;5.25;2.58;;;;;;;19.93;69.45;101094.72;5078659;28;20531;-56
2023/08/24 05:09:10;;;;;;;4.18;2.60;;;;;;;19.99;69.12;101095.97;5078315;28;20135;-53
2023/08/24 05:11:37;;;;;;;3.72;2.75;;;;;;;20.07;69.21;101100.63;5085846;28;20084;-54
2023/08/24 05:14:04;;;;;;;3.92;3.05;;;;;;;20.13;69.14;101092.91;5082121;28;20123;-51
2023/08/24 05:16:31;;;;;;;5.43;2.88;;;;;;;20.22;68.84;101091.22;5080155;28;20842;-53
2023/08/24 05:18:59;;;;;;;5.80;3.08;;;;;;;20.29;68.43;101094.16;5082096;28;20091;-53
2023/08/24 05:21:26;;;;;;;7.82;3.05;;;;;;;20.32;67.99;101096.56;5086244;28;20072;-51
2023/08/24 05:23:53;;;;;;;3.95;2.78;;;;;;;20.33;68.00;101090.22;5071663;28;20056;-52
2023/08/24 05:26:24;;;;;;;6.05;2.75;;;;;;;20.37;67.98;101088.94;5061156;28;20041;-54
2023/08/24 05:28:52;;;;;;;8.10;3.15;;;;;;;20.44;67.84;101093.59;5076666;28;20067;-52
2023/08/24 05:31:19;;;;;;;9.70;2.72;;;;;;;20.47;67.54;101095.13;5079043;28;20075;-51
2023/08/24 05:33:48;;;;;;;6.18;3.20;;;;;;;20.56;67.50;101091.63;5086106;28;20139;-53
2023/08/24 05:36:15;;;;;;;14.02;2.92;;;;;;;20.63;66.92;101102.59;5078612;28;20048;-50
2023/08/24 05:38:46;;;;;;;5.18;2.42;;;;;;;20.76;66.93;101099.59;5083137;28;20481;-54
2023/08/24 05:41:31;;;;;;;5.95;2.67;;;;;;;20.79;66.44;101102.81;5082226;28;20102;-52
2023/08/24 05:43:59;;;;;;;5.38;2.80;;;;;;;20.81;66.81;101094.66;5077189;28;20457;-55
2023/08/24 05:46:26;;;;;;;6.72;3.05;;;;;;;20.79;67.05;101102.81;5079302;28;20123;-54
2023/08/24 05:48:53;;;;;;;4.47;2.25;;;;;;;20.71;67.42;101092.00;5065948;28;20375;-57
2023/08/24 05:51:20;;;;;;;5.60;3.30;;;;;;;20.89;66.93;101092.97;5081742;28;20101;-57
2023/08/24 05:53:48;;;;;;;6.30;3.13;;;;;;;21.05;66.81;101099.50;5083656;28;20161;-56
2023/08/24 05:56:15;;;;;;;6.22;2.75;;;;;;;21.16;66.23;101105.53;5078120;28;20131;-53
2023/08/24 05:58:42;;;;;;;7.13;2.90;;;;;;;21.18;65.90;101100.03;5084936;28;20163;-55
2023/08/24 06:01:09;;;;;;;6.22;3.25;;;;;;;21.20;66.23;101095.34;5067268;28;20147;-52
2023/08/24 06:03:37;;;;;;;5.40;3.30;;;;;;;21.16;66.21;101102.00;5076752;28;20048;-52
2023/08/24 06:06:04;;;;;;;6.05;2.92;;;;;;;21.17;66.10;101091.16;5074720;28;20106;-54
2023/08/24 06:08:32;;;;;;;9.43;3.28;;;;;;;21.33;66.11;101092.38;5065333;28;20561;-50
2023/08/24 06:10:59;;;;;;;7.97;3.55;;;;;;;21.47;66.39;101086.50;5080374;28;20084;-54
2023/08/24 06:13:26;;;;;;;11.70;4.07;;;;;;;21.54;65.65;101086.75;5066243;28;20052;-54
2023/08/24 06:15:54;;;;;;;12.75;5.35;;;;;;;21.56;66.44;101088.28;5081374;28;20154;-56
2023/08/24 06:18:24;;;;;;;22.00;6.78;;;;;;;21.66;67.41;101096.25;5076987;28;20048;-58
2023/08/24 06:20:51;;;;;;;5.50;2.58;;;;;;;21.74;65.22;101096.34;5071698;28;20060;-59
2023/08/24 06:23:20;;;;;;;5.93;2.85;;;;;;;21.80;65.22;101097.59;5084587;28;20072;-56
2023/08/24 06:25:48;;;;;;;7.78;3.08;;;;;;;21.81;64.74;101092.06;5093370;28;20128;-56
2023/08/24 06:28:15;;;;;;;7.35;2.70;;;;;;;21.94;64.41;101095.22;5091348;28;20566;-58
2023/08/24 06:30:43;;;;;;;7.40;3.13;;;;;;;22.01;64.10;101103.50;5086879;28;20052;-57
2023/08/24 06:33:10;;;;;;;7.40;3.00;;;;;;;22.09;63.33;101097.38;5081371;28;20127;-52
2023/08/24 06:35:38;;;;;;;4.45;2.40;;;;;;;22.12;63.34;101091.75;5102079;22;20475;-51
2023/08/24 06:38:05;;;;;;;4.57;2.70;;;;;;;22.22;62.73;101084.44;5089242;28;20109;-50
2023/08/24 06:40:33;;;;;;;7.15;2.80;;;;;;;22.30;62.67;101089.88;5096915;28;20679;-52
2023/08/24 06:43:00;;;;;;;5.30;2.40;;;;;;;22.42;62.37;101082.41;5087571;28;20052;-49
2023/08/24 06:45:27;;;;;;;4.38;2.10;;;;;;;22.52;61.99;101085.88;5099868;28;20579;-48
2023/08/24 06:47:54;;;;;;;8.15;2.58;;;;;;;22.57;61.41;101091.59;5102312;28;20131;-50
2023/08/24 06:50:22;;;;;;;9.18;3.08;;;;;;;22.58;60.93;101095.97;5100158;28;20079;-61
2023/08/24 06:52:49;;;;;;;9.05;2.60;;;;;;;22.69;60.62;101094.84;5102515;28;20078;-63
2023/08/24 06:55:16;;;;;;;14.00;2.50;;;;;;;22.78;60.59;101095.75;5085734;28;20051;-63
2023/08/24 06:57:47;;;;;;;7.53;2.70;;;;;;;22.83;60.39;101105.03;5106243;28;20063;-62
2023/08/24 07:00:16;;;;;;;8.20;3.25;;;;;;;22.73;59.26;101113.16;5113821;28;20066;-62
2023/08/24 07:02:43;;;;;;;5.93;2.78;;;;;;;22.71;59.00;101114.34;5116198;28;20605;-62
2023/08/24 07:05:12;;;;;;;6.53;2.55;;;;;;;22.67;59.24;101108.44;5125679;28;20047;-62
2023/08/24 07:07:43;;;;;;;5.65;2.38;;;;;;;22.59;59.34;101116.41;5101096;28;20043;-62
2023/08/24 07:10:10;;;;;;;8.63;2.92;;;;;;;22.64;58.88;101107.91;5123762;28;20044;-63
2023/08/24 07:12:40;;;;;;;4.65;2.35;;;;;;;22.71;58.74;101107.13;5116616;28;20364;-62
2023/08/24 07:15:08;;;;;;;5.07;2.50;;;;;;;22.85;59.38;101115.59;5116482;28;20039;-61
2023/08/24 07:17:35;;;;;;;11.23;2.88;;;;;;;22.98;57.87;101110.69;5093410;28;20456;-62
2023/08/24 07:20:08;;;;;;;6.82;2.60;;;;;;;23.09;58.51;101113.06;5105668;28;20052;-61
2023/08/24 07:22:35;;;;;;;7.53;2.55;;;;;;;23.06;58.17;101113.41;5084374;28;20162;-62
2023/08/24 07:25:05;;;;;;;5.57;2.25;;;;;;;23.23;57.77;101120.53;5099030;28;20055;-61
2023/08/24 07:27:33;;;;;;;5.57;2.55;;;;;;;23.31;56.64;101117.03;5105438;28;20501;-62
2023/08/24 07:30:03;;;;;;;4.78;2.25;;;;;;;23.35;56.55;101102.28;5107523;28;20157;-60
2023/08/24 07:32:41;;;;;;;5.45;2.17;;;;;;;23.53;56.69;101110.25;5095223;28;20052;-60
2023/08/24 07:35:09;;;;;;;6.22;2.33;;;;;;;23.57;56.49;101105.38;5115814;27;20078;-59
2023/08/24 07:37:36;;;;;;;6.97;2.60;;;;;;;23.62;54.62;101098.50;5116859;27;20590;-62
2023/08/24 07:40:04;;;;;;;10.30;3.08;;;;;;;23.68;55.33;101105.09;5110889;27;20075;-62
2023/08/24 07:42:42;;;;;;;4.35;2.50;;;;;;;23.65;54.14;101100.06;5107680;27;20495;-62
2023/08/24 07:45:10;;;;;;;9.52;2.05;;;;;;;23.58;54.28;101107.06;5112270;27;20539;-62
2023/08/24 07:47:37;;;;;;;6.65;2.75;;;;;;;23.75;54.36;101103.44;5110477;27;20126;-63
2023/08/24 07:50:06;;;;;;;8.25;2.30;;;;;;;24.02;53.93;101099.63;5110217;27;20464;-62
2023/08/24 07:52:33;;;;;;;6.20;2.20;;;;;;;24.29;53.51;101101.16;5107255;27;20055;-61
2023/08/24 07:55:03;;;;;;;6.72;2.20;;;;;;;24.29;52.35;101106.53;5113164;27;20721;-61
2023/08/24 07:57:34;;;;;;;7.28;2.10;;;;;;;24.49;52.59;101104.38;5112756;27;20130;-62
2023/08/24 08:00:02;;;;;;;8.90;2.75;;;;;;;24.79;51.31;101104.69;5115373;27;20213;-61
2023/08/24 08:02:33;;;;;;;9.43;2.00;;;;;;;25.09;50.49;101098.56;5110271;27;20134;-62
2023/08/24 08:05:00;;;;;;;6.38;2.17;;;;;;;25.22;50.44;101098.84;5108963;27;20182;-62
2023/08/24 08:07:28;;;;;;;5.75;2.10;;;;;;;25.07;49.25;101099.72;5110899;27;20058;-64
2023/08/24 08:09:56;;;;;;;3.15;2.13;;;;;;;25.12;49.62;101108.97;5110923;27;20107;-62
2023/08/24 08:12:25;;;;;;;4.50;2.03;;;;;;;25.28;49.37;101102.69;5113398;27;20163;-62
2023/08/24 08:14:52;;;;;;;6.40;2.20;;;;;;;25.50;48.86;101106.47;5112877;27;20108;-62
2023/08/24 08:17:19;;;;;;;4.68;2.20;;;;;;;25.46;48.52;101111.38;5106490;27;20633;-61
2023/08/24 08:19:47;;;;;;;7.85;1.90;;;;;;;25.60;48.11;101108.94;5114456;27;20063;-63
2023/08/24 08:22:14;;;;;;;6.28;2.15;;;;;;;25.68;48.71;101100.81;5111750;27;20075;-63
2023/08/24 08:24:41;;;;;;;5.45;2.45;;;;;;;25.83;48.11;101096.38;5107121;27;20131;-61
2023/08/24 08:27:08;;;;;;;6.65;2.13;;;;;;;25.89;47.72;101089.41;5109273;27;20143;-63
2023/08/24 08:29:35;;;;;;;5.60;1.80;;;;;;;25.79;48.16;101094.22;5110011;27;20118;-62
2023/08/24 08:32:05;;;;;;;2.60;1.77;;;;;;;25.80;48.02;101083.22;5102410;27;20059;-61
2023/08/24 08:34:32;;;;;;;4.10;1.80;;;;;;;25.69;47.28;101089.00;5099472;28;20486;-66
2023/08/24 08:36:59;;;;;;;4.28;2.15;;;;;;;25.50;48.18;101085.75;5096747;28;20068;-62
2023/08/24 08:39:27;;;;;;;5.00;2.00;;;;;;;25.38;47.68;101080.94;5096866;28;20060;-62
2023/08/24 08:41:54;;;;;;;6.93;2.38;;;;;;;25.27;48.31;101074.09;5090092;28;20055;-61
2023/08/24 08:44:22;;;;;;;5.30;2.30;;;;;;;25.17;48.23;101086.91;5088646;28;20131;-61
2023/08/24 08:46:50;;;;;;;3.42;2.20;;;;;;;25.05;49.32;101075.66;5091852;28;20047;-60
2023/08/24 08:49:19;;;;;;;4.40;2.20;;;;;;;25.02;49.24;101070.59;5084262;28;20383;-63
2023/08/24 08:51:46;;;;;;;6.75;2.33;;;;;;;25.05;49.14;101069.44;5087999;28;20079;-62
2023/08/24 08:54:14;;;;;;;4.80;2.40;;;;;;;25.06;49.12;101069.25;5083196;28;20056;-62
2023/08/24 08:56:41;;;;;;;7.15;2.40;;;;;;;25.07;48.52;101068.22;5088725;28;20515;-61
2023/08/24 08:59:08;;;;;;;3.97;2.30;;;;;;;25.06;49.17;101068.41;5094765;28;20071;-61
2023/08/24 09:01:37;;;;;;;4.95;2.25;;;;;;;25.09;49.12;101055.47;5082872;28;20701;-63
2023/08/24 09:04:06;;;;;;;4.50;2.05;;;;;;;25.02;49.16;101063.34;5081248;28;20061;-60
2023/08/24 09:06:33;;;;;;;7.05;2.22;;;;;;;25.10;48.88;101065.22;5058655;28;20162;-62
2023/08/24 09:09:01;;;;;;;3.72;2.28;;;;;;;25.11;49.19;101066.91;5080057;28;20044;-58
2023/08/24 09:11:28;;;;;;;7.63;2.53;;;;;;;25.24;48.77;101064.47;5074364;28;20051;-61
2023/08/24 09:13:55;;;;;;;16.25;3.22;;;;;;;25.37;48.55;101063.09;5097326;28;20131;-62
2023/08/24 09:16:23;;;;;;;7.63;2.30;;;;;;;25.59;47.92;101070.38;5091182;28;20052;-59
2023/08/24 09:18:50;;;;;;;9.07;2.25;;;;;;;25.82;47.22;101061.50;5076850;28;20100;-62
2023/08/24 09:21:17;;;;;;;3.60;2.17;;;;;;;26.05;46.08;101048.84;5096549;28;20105;-60
2023/08/24 09:23:55;;;;;;;3.75;2.00;;;;;;;25.91;46.55;101052.31;5071498;28;20507;-62
2023/08/24 09:26:33;;;;;;;5.10;2.28;;;;;;;25.81;47.03;101047.19;5090197;28;20131;-60
2023/08/24 09:29:05;;;;;;;3.58;1.92;;;;;;;25.78;47.67;101046.69;5095514;28;20592;-63
2023/08/24 09:31:39;;;;;;;3.97;2.28;;;;;;;25.61;46.88;101041.38;5090450;28;20159;-61
2023/08/24 09:34:07;;;;;;;9.23;2.20;;;;;;;25.58;46.22;101033.66;5098597;28;20131;-62
2023/08/24 09:36:35;;;;;;;4.55;1.75;;;;;;;25.69;46.66;101035.91;5112677;27;20469;-65
2023/08/24 09:39:04;;;;;;;10.63;2.20;;;;;;;25.85;47.11;101028.75;5117008;27;20040;-60
2023/08/24 09:41:39;;;;;;;7.50;2.15;;;;;;;26.12;46.37;101021.97;5109289;27;20070;-63
2023/08/24 09:44:07;;;;;;;3.90;1.88;;;;;;;26.31;45.93;101029.56;5110318;27;20110;-62
2023/08/24 09:46:38;;;;;;;7.22;2.08;;;;;;;26.45;45.21;101025.22;5105197;27;20052;-61
2023/08/24 09:49:08;;;;;;;7.10;2.10;;;;;;;26.46;44.87;101018.78;5106841;28;20040;-59
2023/08/24 09:51:37;;;;;;;7.03;2.03;;;;;;;26.35;45.11;101020.06;5114728;27;20092;-60
2023/08/24 09:54:08;;;;;;;8.07;2.10;;;;;;;26.47;44.94;101015.91;5093847;28;20100;-59
2023/08/24 09:56:38;;;;;;;3.92;1.83;;;;;;;26.50;45.42;101006.59;5112806;27;20500;-61
2023/08/24 09:59:17;;;;;;;3.28;1.60;;;;;;;26.67;45.46;101004.56;5088745;27;20138;-59
2023/08/24 10:01:47;;;;;;;4.70;2.03;;;;;;;26.54;43.33;101012.47;5111125;27;20591;-60
2023/08/24 10:04:18;;;;;;;5.75;1.60;;;;;;;26.59;43.22;101005.50;5093257;28;20051;-63
2023/08/24 10:06:48;;;;;;;5.13;1.70;;;;;;;26.21;42.72;101007.38;5111110;27;20079;-61
2023/08/24 10:09:22;;;;;;;5.15;1.63;;;;;;;25.93;43.47;101009.81;5110687;27;20039;-62
2023/08/24 10:11:53;;;;;;;4.32;1.73;;;;;;;26.06;44.48;101007.34;5113930;27;20127;-62
2023/08/24 10:14:32;;;;;;;14.48;1.48;;;;;;;26.30;43.39;101010.81;5087272;28;20490;-60
2023/08/24 10:17:00;;;;;;;7.28;2.33;;;;;;;26.47;41.92;100994.31;5092670;27;20142;-62
2023/08/24 10:19:27;;;;;;;3.30;1.50;;;;;;;26.65;42.60;100993.09;5116046;27;20056;-63
2023/08/24 10:21:57;;;;;;;5.75;1.80;;;;;;;26.88;41.66;101001.09;5109779;27;20170;-62
2023/08/24 10:24:24;;;;;;;3.60;1.50;;;;;;;26.71;41.83;101000.47;5100015;28;20039;-61
2023/08/24 10:26:52;;;;;;;4.55;1.30;;;;;;;26.86;42.12;101000.47;5093747;27;20043;-63
2023/08/24 10:29:20;;;;;;;6.28;1.42;;;;;;;26.99;42.89;101006.03;5091339;27;20047;-62
2023/08/24 10:31:49;;;;;;;3.35;1.45;;;;;;;27.11;42.56;100996.44;5095294;28;20497;-62
2023/08/24 10:34:17;;;;;;;4.88;1.60;;;;;;;27.27;42.57;100993.50;5092838;28;20090;-61
2023/08/24 10:36:47;;;;;;;3.55;1.65;;;;;;;27.48;42.45;100999.97;5119287;28;20548;-62
2023/08/24 10:39:15;;;;;;;14.55;2.08;;;;;;;27.76;42.54;100998.19;5113845;28;20050;-63
2023/08/24 10:41:52;;;;;;;4.85;1.60;;;;;;;27.69;41.32;100994.59;5093599;28;20138;-62
2023/08/24 10:44:25;;;;;;;2.80;1.33;;;;;;;27.76;41.12;100991.97;5115841;28;20070;-62
2023/08/24 10:47:15;;;;;;;2.58;1.55;;;;;;;27.97;41.62;101001.94;5105570;28;20051;-63
2023/08/24 10:49:43;;;;;;;3.75;1.85;;;;;;;27.78;41.80;100992.59;5108509;28;20071;-63
2023/08/24 10:52:18;;;;;;;2.90;1.40;;;;;;;27.99;41.45;100997.16;5111080;28;20051;-62
2023/08/24 10:54:48;;;;;;;3.70;1.52;;;;;;;28.06;40.97;100999.94;5113884;28;20245;-64
2023/08/24 10:57:19;;;;;;;12.75;2.20;;;;;;;28.20;41.26;100999.81;5092689;28;20056;-62
2023/08/24 11:00:05;;;;;;;4.22;2.00;;;;;;;28.26;40.55;100996.31;5108303;28;20051;-63
2023/08/24 11:02:45;;;;;;;6.15;1.55;;;;;;;28.26;40.62;100993.63;5113703;28;21575;-63
2023/08/24 11:05:16;;;;;;;5.53;2.55;;;;;;;28.27;41.04;100991.75;5110036;28;20055;-65
2023/08/24 11:07:50;;;;;;;3.83;2.22;;;;;;;28.31;40.00;100984.91;5107372;27;20503;-62
2023/08/24 11:10:21;;;;;;;5.75;2.17;;;;;;;28.38;40.69;100980.41;5113445;27;20142;-63
2023/08/24 11:13:03;;;;;;;3.08;1.95;;;;;;;28.22;41.23;100967.13;5114783;27;20158;-62
2023/08/24 11:15:42;;;;;;;3.78;2.22;;;;;;;28.52;40.34;100963.19;5109219;27;20043;-62
2023/08/24 11:18:19;;;;;;;5.55;2.22;;;;;;;28.70;40.07;100951.00;5110748;27;20063;-60
2023/08/24 11:20:48;;;;;;;4.20;1.90;;;;;;;28.99;40.14;100949.88;5113539;27;20105;-60
2023/08/24 11:23:16;;;;;;;5.60;2.05;;;;;;;29.18;40.08;100942.84;5111061;27;20073;-58
2023/08/24 11:25:44;;;;;;;5.70;2.05;;;;;;;29.38;39.25;100935.59;5112851;27;20079;-60
2023/08/24 11:28:13;;;;;;;4.75;2.20;;;;;;;29.26;39.36;100938.06;5115526;27;20428;-60
2023/08/24 11:30:42;;;;;;;5.05;2.70;;;;;;;29.17;38.80;100938.47;5095520;28;20078;-63
2023/08/24 11:33:11;;;;;;;11.18;2.95;;;;;;;29.29;39.01;100936.00;5115851;27;20097;-62